createdAt,value
2022-09-15T00:00:57.221Z,16.99
2022-09-15T00:03:24.403Z,16.99
2022-09-15T00:05:54.269Z,16.99
2022-09-15T00:08:22.009Z,16.99
2022-09-15T00:10:53.550Z,16.97
2022-09-15T00:13:21.505Z,16.90
2022-09-15T00:15:48.572Z,16.82
2022-09-15T00:18:15.178Z,16.80
2022-09-15T00:20:43.485Z,16.85
2022-09-15T00:23:12.093Z,16.82
2022-09-15T00:25:45.845Z,16.80
2022-09-15T00:28:13.998Z,16.83
2022-09-15T00:31:04.011Z,16.78
2022-09-15T00:33:30.589Z,16.62
2022-09-15T00:35:57.225Z,16.56
2022-09-15T00:38:23.800Z,16.57
2022-09-15T00:40:55.913Z,16.45
2022-09-15T00:43:41.564Z,16.39
2022-09-15T00:46:08.979Z,16.26
2022-09-15T00:48:38.691Z,16.26
2022-09-15T00:51:08.625Z,16.27
2022-09-15T00:53:35.785Z,16.23
2022-09-15T00:56:04.790Z,16.34
2022-09-15T00:58:37.844Z,16.30
2022-09-15T01:01:08.260Z,16.20
2022-09-15T01:03:36.784Z,16.19
2022-09-15T01:06:15.811Z,16.17
2022-09-15T01:08:59.943Z,16.14
2022-09-15T01:11:26.752Z,16.14
2022-09-15T01:13:53.374Z,15.96
2022-09-15T01:17:12.345Z,16.02
2022-09-15T01:19:47.714Z,15.96
2022-09-15T01:22:27.094Z,15.96
2022-09-15T01:25:07.561Z,15.92
2022-09-15T01:28:02.797Z,15.74
2022-09-15T01:30:42.322Z,15.68
2022-09-15T01:33:15.230Z,15.55
2022-09-15T01:36:11.468Z,15.48
2022-09-15T01:38:44.092Z,15.53
2022-09-15T01:41:25.585Z,15.49
2022-09-15T01:44:12.415Z,15.57
2022-09-15T01:46:52.519Z,15.53
2022-09-15T01:49:25.449Z,15.56
2022-09-15T01:51:54.072Z,15.70
2022-09-15T01:54:25.586Z,15.82
2022-09-15T01:56:52.544Z,15.89
2022-09-15T01:59:19.291Z,15.94
2022-09-15T02:01:51.879Z,15.97
2022-09-15T02:04:30.888Z,15.93
2022-09-15T02:07:11.608Z,15.96
2022-09-15T02:09:54.669Z,15.95
2022-09-15T02:12:34.936Z,15.85
2022-09-15T02:15:10.886Z,15.94
2022-09-15T02:17:54.197Z,15.86
2022-09-15T02:20:25.668Z,15.83
2022-09-15T02:22:57.282Z,15.77
2022-09-15T02:25:36.137Z,15.82
2022-09-15T02:28:09.353Z,15.61
2022-09-15T02:30:41.966Z,15.65
2022-09-15T02:33:19.993Z,15.70
2022-09-15T02:35:47.616Z,15.80
2022-09-15T02:38:15.158Z,15.79
2022-09-15T02:40:44.662Z,15.88
2022-09-15T02:43:15.962Z,15.99
2022-09-15T02:45:42.957Z,16.02
2022-09-15T02:48:09.897Z,16.02
2022-09-15T02:50:39.171Z,16.09
2022-09-15T02:53:06.172Z,16.11
2022-09-15T02:55:32.964Z,16.08
2022-09-15T02:58:00.185Z,16.19
2022-09-15T03:00:28.483Z,16.10
2022-09-15T03:02:56.187Z,15.98
2022-09-15T03:05:25.631Z,15.97
2022-09-15T03:07:53.175Z,15.82
2022-09-15T03:10:20.053Z,15.84
2022-09-15T03:12:49.580Z,15.76
2022-09-15T03:15:19.496Z,15.73
2022-09-15T03:17:47.417Z,15.75
2022-09-15T03:20:17.075Z,15.64
2022-09-15T03:22:44.010Z,15.56
2022-09-15T03:25:11.256Z,15.60
2022-09-15T03:27:38.403Z,15.53
2022-09-15T03:30:06.795Z,15.50
2022-09-15T03:32:33.419Z,15.48
2022-09-15T03:34:59.989Z,15.52
2022-09-15T03:37:27.078Z,15.50
2022-09-15T03:39:53.782Z,15.52
2022-09-15T03:42:21.505Z,15.40
2022-09-15T03:44:48.063Z,15.32
2022-09-15T03:47:14.620Z,15.38
2022-09-15T03:49:41.303Z,15.36
2022-09-15T03:52:07.878Z,15.35
2022-09-15T03:54:35.444Z,15.40
2022-09-15T03:57:02.254Z,15.44
2022-09-15T03:59:29.034Z,15.46
2022-09-15T04:01:55.658Z,15.46
2022-09-15T04:04:22.257Z,15.41
2022-09-15T04:06:48.880Z,15.42
2022-09-15T04:09:15.618Z,15.42
2022-09-15T04:11:42.741Z,15.46
2022-09-15T04:14:09.341Z,15.35
2022-09-15T04:16:36.158Z,15.40
2022-09-15T04:19:02.827Z,15.40
2022-09-15T04:21:31.721Z,15.45
2022-09-15T04:23:58.683Z,15.47
2022-09-15T04:26:30.010Z,15.56
2022-09-15T04:28:59.558Z,15.63
2022-09-15T04:31:29.934Z,15.74
2022-09-15T04:33:57.247Z,15.79
2022-09-15T04:36:25.853Z,15.77
2022-09-15T04:38:52.800Z,16.00
2022-09-15T04:41:20.954Z,16.14
2022-09-15T04:43:48.177Z,16.20
2022-09-15T04:46:15.256Z,16.35
2022-09-15T04:48:41.984Z,16.49
2022-09-15T04:51:13.978Z,16.59
2022-09-15T04:53:40.904Z,16.80
2022-09-15T04:56:12.495Z,16.89
2022-09-15T04:58:41.691Z,16.92
2022-09-15T05:01:14.032Z,16.99
2022-09-15T05:03:41.455Z,17.10
2022-09-15T05:06:10.788Z,17.27
2022-09-15T05:08:38.101Z,17.65
2022-09-15T05:11:07.412Z,17.94
2022-09-15T05:13:34.968Z,18.50
2022-09-15T05:16:12.656Z,19.06
2022-09-15T05:18:41.132Z,19.53
2022-09-15T05:21:10.062Z,20.00
2022-09-15T05:23:37.809Z,20.35
2022-09-15T05:26:07.592Z,20.56
2022-09-15T05:28:36.080Z,20.81
2022-09-15T05:31:11.812Z,21.25
2022-09-15T05:33:38.872Z,21.52
2022-09-15T05:36:07.181Z,21.99
2022-09-15T05:38:33.830Z,22.20
2022-09-15T05:41:08.322Z,22.33
2022-09-15T05:43:36.837Z,22.55
2022-09-15T05:46:03.989Z,22.55
2022-09-15T05:48:30.994Z,22.87
2022-09-15T05:50:58.439Z,22.91
2022-09-15T05:53:26.249Z,23.12
2022-09-15T05:55:57.339Z,23.41
2022-09-15T05:58:25.294Z,23.45
2022-09-15T06:00:53.434Z,23.14
2022-09-15T06:03:21.065Z,23.16
2022-09-15T06:05:48.249Z,23.31
2022-09-15T06:08:15.127Z,23.30
2022-09-15T06:10:41.731Z,23.26
2022-09-15T06:13:08.348Z,23.19
2022-09-15T06:15:34.959Z,23.21
2022-09-15T06:18:01.590Z,23.21
2022-09-15T06:20:28.223Z,23.22
2022-09-15T06:22:56.146Z,23.21
2022-09-15T06:25:22.744Z,23.22
2022-09-15T06:27:50.666Z,23.34
2022-09-15T06:30:17.979Z,23.49
2022-09-15T06:32:48.053Z,23.78
2022-09-15T06:35:15.499Z,24.00
2022-09-15T06:37:42.084Z,23.92
2022-09-15T06:40:09.197Z,23.81
2022-09-15T06:42:35.820Z,23.93
2022-09-15T06:45:02.420Z,24.01
2022-09-15T06:47:33.943Z,24.03
2022-09-15T06:50:01.141Z,23.52
2022-09-15T06:52:28.076Z,23.71
2022-09-15T06:54:54.705Z,23.47
2022-09-15T06:57:21.362Z,23.52
2022-09-15T06:59:47.921Z,23.26
2022-09-15T07:02:14.615Z,23.37
2022-09-15T07:04:41.335Z,23.31
2022-09-15T07:07:08.093Z,23.50
2022-09-15T07:09:34.685Z,23.52
2022-09-15T07:12:01.593Z,23.40
2022-09-15T07:14:28.216Z,23.18
2022-09-15T07:16:54.801Z,23.33
2022-09-15T07:19:21.712Z,23.76
2022-09-15T07:21:48.335Z,23.48
2022-09-15T07:24:15.000Z,24.06
2022-09-15T07:26:41.922Z,24.57
2022-09-15T07:29:09.793Z,24.65
2022-09-15T07:31:38.532Z,24.78
2022-09-15T07:34:06.266Z,25.13
2022-09-15T07:36:33.117Z,25.17
2022-09-15T07:38:59.693Z,25.46
2022-09-15T07:41:30.925Z,25.74
2022-09-15T07:43:59.098Z,26.17
2022-09-15T07:46:27.183Z,26.44
2022-09-15T07:48:57.968Z,25.98
2022-09-15T07:51:26.496Z,25.42
2022-09-15T07:53:53.756Z,25.25
2022-09-15T07:56:21.677Z,25.24
2022-09-15T07:58:49.128Z,25.42
2022-09-15T08:01:17.686Z,25.55
2022-09-15T08:03:48.516Z,25.62
2022-09-15T08:06:17.968Z,25.84
2022-09-15T08:08:44.873Z,25.94
2022-09-15T08:11:18.507Z,26.11
2022-09-15T08:13:50.161Z,26.27
2022-09-15T08:16:19.774Z,26.35
2022-09-15T08:18:46.476Z,26.48
2022-09-15T08:21:16.147Z,26.27
2022-09-15T08:23:42.925Z,26.20
2022-09-15T08:26:14.115Z,26.06
2022-09-15T08:28:41.027Z,26.10
2022-09-15T08:31:09.404Z,26.13
2022-09-15T08:33:36.077Z,26.37
2022-09-15T08:36:07.383Z,26.70
2022-09-15T08:38:34.452Z,27.06
2022-09-15T08:41:06.148Z,27.37
2022-09-15T08:43:45.843Z,27.66
2022-09-15T08:46:18.540Z,27.99
2022-09-15T08:48:51.142Z,27.99
2022-09-15T08:51:27.549Z,27.93
2022-09-15T08:54:03.234Z,28.04
2022-09-15T08:56:30.756Z,28.20
2022-09-15T08:58:57.320Z,28.19
2022-09-15T09:01:42.385Z,28.03
2022-09-15T09:04:33.921Z,27.62
2022-09-15T09:07:30.196Z,27.39
2022-09-15T09:10:19.361Z,27.55
2022-09-15T09:13:16.994Z,27.98
2022-09-15T09:16:10.932Z,28.24
2022-09-15T09:19:15.272Z,28.28
2022-09-15T09:21:47.481Z,28.33
2022-09-15T09:24:17.240Z,28.20
2022-09-15T09:26:49.283Z,28.49
2022-09-15T09:29:18.907Z,28.70
2022-09-15T09:31:50.754Z,28.95
2022-09-15T09:34:30.063Z,29.37
2022-09-15T09:37:01.731Z,29.55
2022-09-15T09:39:29.057Z,29.81
2022-09-15T09:41:56.085Z,30.12
2022-09-15T09:44:31.756Z,30.28
2022-09-15T09:46:59.702Z,30.18
2022-09-15T09:49:40.870Z,30.18
2022-09-15T09:52:07.426Z,30.17
2022-09-15T09:54:35.511Z,29.76
2022-09-15T09:57:14.357Z,29.21
2022-09-15T09:59:47.809Z,29.37
2022-09-15T10:02:28.794Z,29.45
2022-09-15T10:05:17.661Z,29.77
2022-09-15T10:07:44.332Z,29.85
2022-09-15T10:10:23.342Z,29.95
2022-09-15T10:12:55.615Z,30.41
2022-09-15T10:15:25.160Z,30.53
2022-09-15T10:17:53.204Z,30.72
2022-09-15T10:20:25.494Z,30.98
2022-09-15T10:23:01.270Z,30.92
2022-09-15T10:25:49.328Z,31.49
2022-09-15T10:28:23.032Z,31.94
2022-09-15T10:31:05.989Z,32.04
2022-09-15T10:33:47.821Z,32.26
2022-09-15T10:36:29.854Z,31.64
2022-09-15T10:39:06.002Z,31.78
2022-09-15T10:41:40.653Z,31.75
2022-09-15T10:44:27.546Z,31.77
2022-09-15T10:47:35.360Z,31.49
2022-09-15T10:50:32.717Z,31.31
2022-09-15T10:53:02.119Z,31.71
2022-09-15T10:55:54.668Z,31.96
2022-09-15T10:58:56.679Z,31.75
2022-09-15T11:01:32.214Z,31.44
2022-09-15T11:04:29.560Z,31.16
2022-09-15T11:07:15.286Z,31.41
2022-09-15T11:09:53.864Z,31.26
2022-09-15T11:12:58.504Z,31.05
2022-09-15T11:15:57.358Z,30.98
2022-09-15T11:18:49.071Z,30.73
2022-09-15T11:21:15.631Z,30.65
2022-09-15T11:23:49.216Z,30.60
2022-09-15T11:26:31.070Z,30.65
2022-09-15T11:29:05.317Z,30.88
2022-09-15T11:31:39.646Z,31.04
2022-09-15T11:34:22.398Z,31.54
2022-09-15T11:37:12.382Z,31.83
2022-09-15T11:39:56.553Z,31.86
2022-09-15T11:42:41.134Z,31.83
2022-09-15T11:45:17.725Z,32.03
2022-09-15T11:47:49.308Z,31.62
2022-09-15T11:50:24.898Z,31.80
2022-09-15T11:53:03.881Z,31.60
2022-09-15T11:55:42.301Z,32.05
2022-09-15T11:58:27.643Z,32.50
2022-09-15T12:01:08.862Z,32.26
2022-09-15T12:03:43.144Z,32.36
2022-09-15T12:06:20.355Z,32.20
2022-09-15T12:08:56.917Z,32.29
2022-09-15T12:11:26.981Z,32.22
2022-09-15T12:13:55.256Z,32.30
2022-09-15T12:16:22.678Z,32.27
2022-09-15T12:19:25.257Z,32.26
2022-09-15T12:22:01.940Z,32.24
2022-09-15T12:24:35.481Z,32.30
2022-09-15T12:27:02.654Z,32.16
2022-09-15T12:29:41.211Z,32.56
2022-09-15T12:32:20.032Z,32.57
2022-09-15T12:35:05.557Z,32.82
2022-09-15T12:37:47.399Z,33.04
2022-09-15T12:40:40.036Z,32.55
2022-09-15T12:43:16.018Z,32.44
2022-09-15T12:45:53.883Z,32.82
2022-09-15T12:48:33.498Z,32.83
2022-09-15T12:51:05.043Z,32.93
2022-09-15T12:53:46.376Z,32.86
2022-09-15T12:56:22.677Z,33.23
2022-09-15T12:58:50.872Z,33.00
2022-09-15T13:01:23.652Z,33.30
2022-09-15T13:03:50.328Z,32.96
2022-09-15T13:06:22.973Z,32.74
2022-09-15T13:08:49.715Z,32.54
2022-09-15T13:11:36.840Z,32.51
2022-09-15T13:14:03.494Z,32.55
2022-09-15T13:16:41.141Z,32.94
2022-09-15T13:19:20.668Z,33.13
2022-09-15T13:22:20.187Z,33.25
2022-09-15T13:25:07.813Z,33.17
2022-09-15T13:27:40.619Z,33.06
2022-09-15T13:30:10.222Z,33.19
2022-09-15T13:32:52.540Z,33.12
2022-09-15T13:35:25.115Z,33.15
2022-09-15T13:38:21.206Z,33.56
2022-09-15T13:41:11.864Z,33.72
2022-09-15T13:43:48.409Z,33.84
2022-09-15T13:46:41.304Z,33.64
2022-09-15T13:49:44.983Z,33.53
2022-09-15T13:52:23.488Z,33.78
2022-09-15T13:55:14.496Z,33.87
2022-09-15T14:00:34.358Z,32.51
2022-09-15T14:03:13.248Z,32.39
2022-09-15T14:05:40.594Z,32.43
2022-09-15T14:08:18.459Z,32.58
2022-09-15T14:10:51.041Z,32.53
2022-09-15T14:13:20.937Z,32.71
2022-09-15T14:16:03.078Z,32.54
2022-09-15T14:18:31.357Z,32.07
2022-09-15T14:21:03.428Z,32.14
2022-09-15T14:23:31.138Z,32.22
2022-09-15T14:26:02.747Z,32.04
2022-09-15T14:28:32.806Z,32.23
2022-09-15T14:31:01.634Z,32.17
2022-09-15T14:33:41.020Z,32.12
2022-09-15T14:36:25.829Z,31.93
2022-09-15T14:39:13.585Z,31.85
2022-09-15T14:41:40.242Z,31.74
2022-09-15T14:47:28.651Z,31.58
2022-09-15T14:50:11.673Z,31.45
2022-09-15T14:52:41.614Z,31.43
2022-09-15T14:55:15.062Z,31.27
2022-09-15T14:57:48.916Z,31.34
2022-09-15T15:00:21.243Z,31.42
2022-09-15T15:02:51.694Z,31.25
2022-09-15T15:05:26.618Z,31.06
2022-09-15T15:07:55.400Z,30.80
2022-09-15T15:10:26.021Z,30.67
2022-09-15T15:12:56.172Z,30.39
2022-09-15T15:15:23.178Z,30.24
2022-09-15T15:17:54.573Z,30.12
2022-09-15T15:20:25.091Z,29.87
2022-09-15T15:23:18.753Z,29.58
2022-09-15T15:25:47.068Z,29.54
2022-09-15T15:28:37.054Z,29.40
2022-09-15T15:31:24.596Z,29.47
2022-09-15T15:33:59.130Z,29.42
2022-09-15T15:36:28.543Z,29.54
2022-09-15T15:39:00.375Z,29.47
2022-09-15T15:41:30.083Z,29.43
2022-09-15T15:44:23.049Z,29.54
2022-09-15T15:46:51.026Z,29.70
2022-09-15T15:49:19.268Z,29.45
2022-09-15T15:51:45.822Z,29.41
2022-09-15T15:54:12.784Z,29.35
2022-09-15T15:56:39.611Z,29.35
2022-09-15T15:59:06.340Z,29.38
2022-09-15T16:01:33.577Z,29.40
2022-09-15T16:04:00.442Z,29.20
2022-09-15T16:06:27.211Z,28.95
2022-09-15T16:08:55.598Z,28.81
2022-09-15T16:11:22.186Z,28.66
2022-09-15T16:13:48.946Z,28.43
2022-09-15T16:16:21.056Z,28.30
2022-09-15T16:18:47.786Z,28.13
2022-09-15T16:21:30.483Z,27.84
2022-09-15T16:23:57.096Z,27.79
2022-09-15T16:26:24.988Z,27.50
2022-09-15T16:28:52.344Z,27.48
2022-09-15T16:31:19.061Z,27.31
2022-09-15T16:33:45.675Z,27.26
2022-09-15T16:36:14.399Z,27.05
2022-09-15T16:38:41.419Z,26.96
2022-09-15T16:41:26.348Z,26.90
2022-09-15T16:43:53.498Z,26.87
2022-09-15T16:46:20.545Z,26.82
2022-09-15T16:48:47.307Z,26.82
2022-09-15T16:51:25.204Z,26.83
2022-09-15T16:53:56.229Z,26.75
2022-09-15T16:56:22.952Z,26.73
2022-09-15T16:58:49.664Z,26.65
2022-09-15T17:01:19.449Z,26.63
2022-09-15T17:03:46.461Z,26.46
2022-09-15T17:06:14.949Z,26.42
2022-09-15T17:08:41.867Z,26.43
2022-09-15T17:11:16.521Z,26.48
2022-09-15T17:13:44.012Z,26.46
2022-09-15T17:16:19.445Z,26.45
2022-09-15T17:18:46.962Z,26.36
2022-09-15T17:21:16.244Z,26.23
2022-09-15T17:23:45.662Z,26.09
2022-09-15T17:26:20.946Z,26.06
2022-09-15T17:28:47.956Z,26.06
2022-09-15T17:31:16.045Z,26.05
2022-09-15T17:33:43.184Z,26.01
2022-09-15T17:36:10.032Z,25.99
2022-09-15T17:38:36.727Z,25.88
2022-09-15T17:41:03.741Z,25.81
2022-09-15T17:43:32.033Z,25.70
2022-09-15T17:45:59.382Z,25.59
2022-09-15T17:48:26.258Z,25.44
2022-09-15T17:50:53.000Z,25.40
2022-09-15T17:53:26.743Z,25.23
2022-09-15T17:55:55.282Z,25.16
2022-09-15T17:58:23.470Z,25.15
2022-09-15T18:00:50.901Z,25.13
2022-09-15T18:03:17.469Z,25.24
2022-09-15T18:05:44.289Z,25.25
2022-09-15T18:08:11.151Z,25.28
2022-09-15T18:10:37.885Z,25.22
2022-09-15T18:13:05.839Z,25.25
2022-09-15T18:15:34.964Z,25.21
2022-09-15T18:18:08.551Z,25.20
2022-09-15T18:20:36.769Z,25.20
2022-09-15T18:23:03.436Z,25.16
2022-09-15T18:25:34.519Z,25.11
2022-09-15T18:28:02.102Z,25.14
2022-09-15T18:30:32.394Z,25.13
2022-09-15T18:32:59.473Z,25.09
2022-09-15T18:35:26.425Z,25.06
2022-09-15T18:37:57.905Z,25.17
2022-09-15T18:40:25.814Z,25.24
2022-09-15T18:42:52.544Z,25.20
2022-09-15T18:45:20.128Z,25.23
2022-09-15T18:47:49.202Z,25.21
2022-09-15T18:50:17.258Z,25.05
2022-09-15T18:52:44.321Z,25.04
2022-09-15T18:55:18.227Z,25.15
2022-09-15T18:57:45.889Z,25.01
2022-09-15T19:00:15.777Z,24.82
2022-09-15T19:02:42.998Z,24.57
2022-09-15T19:05:15.656Z,24.28
2022-09-15T19:07:44.187Z,24.13
2022-09-15T19:10:12.659Z,23.84
2022-09-15T19:12:40.160Z,23.52
2022-09-15T19:15:12.182Z,23.35
2022-09-15T19:17:39.737Z,23.29
2022-09-15T19:20:08.728Z,23.15
2022-09-15T19:22:36.738Z,23.16
2022-09-15T19:25:04.952Z,23.17
2022-09-15T19:27:31.885Z,23.19
2022-09-15T19:29:58.607Z,23.33
2022-09-15T19:32:25.200Z,23.34
2022-09-15T19:34:51.841Z,23.50
2022-09-15T19:37:20.947Z,23.51
2022-09-15T19:39:50.857Z,23.49
2022-09-15T19:42:21.185Z,23.49
2022-09-15T19:44:54.539Z,23.45
2022-09-15T19:47:27.018Z,23.53
2022-09-15T19:49:55.452Z,23.56
2022-09-15T19:52:22.849Z,23.46
2022-09-15T19:54:55.338Z,23.19
2022-09-15T19:57:24.902Z,22.97
2022-09-15T19:59:54.891Z,22.80
2022-09-15T20:02:22.436Z,22.62
2022-09-15T20:04:51.002Z,22.41
2022-09-15T20:07:18.028Z,22.46
2022-09-15T20:09:44.815Z,22.83
2022-09-15T20:12:11.448Z,22.97
2022-09-15T20:14:38.075Z,23.07
2022-09-15T20:17:05.273Z,23.14
2022-09-15T20:19:32.878Z,23.11
2022-09-15T20:21:59.546Z,22.88
2022-09-15T20:24:26.262Z,22.74
2022-09-15T20:26:53.300Z,22.58
2022-09-15T20:29:20.586Z,22.49
2022-09-15T20:31:48.085Z,22.50
2022-09-15T20:34:14.900Z,22.56
2022-09-15T20:36:41.603Z,22.51
2022-09-15T20:39:13.315Z,22.32
2022-09-15T20:41:41.399Z,22.60
2022-09-15T20:44:11.863Z,22.80
2022-09-15T20:46:38.479Z,22.72
2022-09-15T20:49:05.143Z,22.82
2022-09-15T20:51:33.634Z,22.88
2022-09-15T20:54:03.462Z,22.86
2022-09-15T20:56:32.745Z,23.19
2022-09-15T20:59:00.570Z,23.30
2022-09-15T21:01:36.898Z,23.49
2022-09-15T21:04:04.326Z,23.56
2022-09-15T21:06:31.587Z,23.52
2022-09-15T21:08:58.655Z,23.49
2022-09-15T21:11:27.507Z,23.42
2022-09-15T21:13:55.301Z,23.38
2022-09-15T21:16:24.933Z,23.54
2022-09-15T21:18:52.210Z,23.60
2022-09-15T21:21:21.982Z,23.71
2022-09-15T21:23:53.876Z,23.49
2022-09-15T21:26:25.750Z,23.34
2022-09-15T21:28:52.927Z,23.13
2022-09-15T21:31:22.417Z,22.92
2022-09-15T21:33:49.487Z,22.85
2022-09-15T21:36:24.519Z,22.98
2022-09-15T21:38:53.058Z,22.79
2022-09-15T21:41:22.438Z,22.70
2022-09-15T21:43:54.685Z,22.77
2022-09-15T21:46:24.079Z,22.73
2022-09-15T21:48:50.673Z,22.68
2022-09-15T21:51:24.000Z,22.78
2022-09-15T21:53:55.658Z,22.81
2022-09-15T21:56:23.065Z,22.70
2022-09-15T21:58:50.001Z,22.53
2022-09-15T22:01:19.599Z,22.63
2022-09-15T22:03:56.218Z,22.64
2022-09-15T22:06:31.515Z,22.68
2022-09-15T22:09:04.040Z,23.03
2022-09-15T22:11:31.061Z,23.05
2022-09-15T22:13:58.062Z,23.29
2022-09-15T22:16:26.170Z,23.35
2022-09-15T22:18:53.215Z,23.11
2022-09-15T22:21:25.685Z,23.21
2022-09-15T22:23:54.962Z,23.33
2022-09-15T22:26:34.538Z,23.35
2022-09-15T22:29:01.863Z,23.36
2022-09-15T22:31:29.350Z,23.26
2022-09-15T22:33:56.628Z,22.91
2022-09-15T22:36:29.260Z,22.99
2022-09-15T22:39:04.220Z,22.95
2022-09-15T22:41:34.507Z,23.00
2022-09-15T22:44:01.397Z,23.35
2022-09-15T22:46:28.128Z,23.67
2022-09-15T22:48:54.876Z,23.72
2022-09-15T22:51:21.501Z,23.76
2022-09-15T22:53:48.107Z,23.86
2022-09-15T22:56:20.463Z,23.75
2022-09-15T22:58:48.806Z,23.58
2022-09-15T23:01:20.401Z,23.33
2022-09-15T23:03:54.707Z,23.30
2022-09-15T23:06:22.254Z,23.16
2022-09-15T23:08:56.903Z,23.10
2022-09-15T23:11:26.664Z,23.04
2022-09-15T23:13:53.805Z,23.00
2022-09-15T23:16:20.842Z,22.85
2022-09-15T23:18:48.407Z,22.72
2022-09-15T23:21:15.095Z,22.67
2022-09-15T23:23:44.320Z,22.49
2022-09-15T23:26:12.538Z,22.37
2022-09-15T23:28:39.757Z,22.23
2022-09-15T23:31:06.820Z,22.07
2022-09-15T23:33:33.694Z,21.88
2022-09-15T23:36:05.342Z,21.64
2022-09-15T23:38:36.170Z,21.29
2022-09-15T23:41:02.776Z,21.06
2022-09-15T23:43:29.419Z,21.04
2022-09-15T23:45:56.017Z,20.95
2022-09-15T23:48:23.393Z,20.91
2022-09-15T23:50:50.120Z,20.85
2022-09-15T23:53:16.922Z,20.83
2022-09-15T23:55:44.041Z,20.75
2022-09-15T23:58:11.126Z,20.63
